Terminal Aerodrome Forecast
Issued by NWS

Home | Current Version | Previous Version | Text Only | Print | Product List | Glossary On
Versions: 1 2 3 4 5 6 7 8 9 10 11 12 13 14 15
000
FTUS42 KTBW 170500
TAFPGD
TAF
KPGD 170538Z 1706/1806 VRB05KT P6SM BKN090 BKN250
     FM171200 VRB03KT P6SM VCTS SCT035CB BKN250
     FM171800 27008KT P6SM VCTS SCT020CB BKN030
     FM180100 26004KT P6SM VCTS SCT035CB BKN080=

USA.gov is the U.S. government's official web portal to all federal, state and local government web resources and services.